Pagrindinis puslapis
METAR-TAF:

METAR-TAF

Oro uostai :

Maputu, Mozambikas

platuma: 25-55S, ilguma: 032-34E, Aukštis: 39 m

Dabartinis oras

Ataskaita buvo paskelbta 55 minutes, ne 22:00 UTC
Vėjas 4 kt iš Vakarų/Pietvakarių
Temperatūra 19°C
Drėgmė 88%
Slėgis 1024 hPa
Matomumas 10 km arba daugiau
Mažai debesys ne aukštis 2000 ft

METAR: FQMA 302200Z 24004KT 9999 FEW020 19/17 Q1024 NOSIG

Laikas: 00:55 (22:55 UTC)

Prognozė

Ataskaita buvo paskelbta 12 valandos ir 55 minutes, ne 10:00 UTC
Prognozė galioja nuo 30 metu 12 UTC su 31 metu 18 UTC
Vėjas 8 kt iš Pietų
Matomumas 10 km arba daugiau
Mažai debesys ne aukštis 2000 ft
Tapsmas
nuo 30 metu 18 UTC su 30 metu 20 UTC
Vėjas 10 kt iš Šiaurės Rytų
Tapsmas
nuo 31 metu 00 UTC su 31 metu 02 UTC
Vėjas 12 kt iš Šiaurės

TAF: FQMA 301000Z 3012/3118 18008KT 9999 FEW020 TX27/3013Z TN13/3103Z BECMG 3018/3020 05010KT BECMG 3100/3102 35012KT

Orai ataskaitas ir orų prognozės (METAR, TAF).

turimą stotys yra geltonos ir raudonos taškus žemėlapyje.

Perkelti pele per norėdami pamatyti stoties vardą.

Tada spustelėkite, norėdami matyti oro stebėjimo ir prognozės.

Norėdami pakeisti žemėlapį: spustelėkite ant žalios mygtukų su juodo kryžiaus žemyn,; žalią mygtuką su brūkšneliu, jei norite nutolinti; arba žalių rodyklių gretimoms žemėlapius.


METAR-TAF: